Time,TemperatureF,DewpointF,PressureIn,WindDirection,WindDirectionDegrees,WindSpeedMPH,WindSpeedGustMPH,Humidity,HourlyPrecipIn,Conditions,Clouds,dailyrainin,SoftwareType,DateUTC
2013-04-20 00:03:00,59.2,58.0,29.68,West,274,1.0,7.0,96,0.00,,,0.00,weatherlink.com 1.10,2013-04-20 04:03:00,
2013-04-20 00:18:00,58.6,58.0,29.68,SW,224,5.0,6.0,96,0.00,,,0.00,weatherlink.com 1.10,2013-04-20 04:18:00,
2013-04-20 00:33:00,58.3,57.0,29.68,SW,229,2.0,5.0,96,0.00,,,0.00,weatherlink.com 1.10,2013-04-20 04:33:00,
2013-04-20 00:48:00,58.0,57.0,29.69,South,179,4.0,6.0,96,0.04,,,0.04,weatherlink.com 1.10,2013-04-20 04:48:00,
2013-04-20 01:03:00,57.9,57.0,29.69,West,279,1.0,7.0,96,0.05,,,0.05,weatherlink.com 1.10,2013-04-20 05:03:00,
2013-04-20 01:18:00,58.1,57.0,29.69,West,259,5.0,5.0,97,0.06,,,0.06,weatherlink.com 1.10,2013-04-20 05:18:00,
2013-04-20 01:33:00,56.9,55.0,29.70,NW,304,4.0,9.0,93,0.06,,,0.06,weatherlink.com 1.10,2013-04-20 05:33:00,
2013-04-20 01:49:00,54.3,52.0,29.70,WNW,284,2.0,9.0,90,0.04,,,0.08,weatherlink.com 1.10,2013-04-20 05:49:00,
2013-04-20 02:03:00,53.4,50.0,29.69,WNW,291,1.0,7.0,88,0.04,,,0.09,weatherlink.com 1.10,2013-04-20 06:03:00,
2013-04-20 02:18:00,53.0,49.0,29.68,WNW,287,0.0,5.0,85,0.03,,,0.09,weatherlink.com 1.10,2013-04-20 06:18:00,
2013-04-20 02:33:00,53.0,49.0,29.69,WSW,243,0.0,4.0,85,0.04,,,0.10,weatherlink.com 1.10,2013-04-20 06:33:00,
2013-04-20 02:48:00,52.8,49.0,29.70,SW,236,1.0,1.0,86,0.02,,,0.10,weatherlink.com 1.10,2013-04-20 06:48:00,
2013-04-20 03:03:00,52.3,49.0,29.71,WSW,253,2.0,4.0,87,0.03,,,0.12,weatherlink.com 1.10,2013-04-20 07:03:00,
2013-04-20 03:19:00,51.6,49.0,29.72,WSW,243,1.0,3.0,89,0.07,,,0.16,weatherlink.com 1.10,2013-04-20 07:19:00,
2013-04-20 03:34:00,51.1,48.0,29.72,SW,226,2.0,4.0,90,0.08,,,0.18,weatherlink.com 1.10,2013-04-20 07:34:00,
2013-04-20 03:49:00,50.8,49.0,29.71,WSW,240,3.0,4.0,92,0.10,,,0.20,weatherlink.com 1.10,2013-04-20 07:49:00,
2013-04-20 04:04:00,50.7,49.0,29.71,WSW,249,2.0,5.0,92,0.09,,,0.21,weatherlink.com 1.10,2013-04-20 08:04:00,
2013-04-20 04:19:00,50.7,49.0,29.74,SW,222,4.0,6.0,92,0.05,,,0.21,weatherlink.com 1.10,2013-04-20 08:19:00,
2013-04-20 04:34:00,50.6,48.0,29.74,West,276,1.0,6.0,91,0.03,,,0.21,weatherlink.com 1.10,2013-04-20 08:34:00,
2013-04-20 04:49:00,50.6,48.0,29.75,SW,225,1.0,3.0,91,0.01,,,0.21,weatherlink.com 1.10,2013-04-20 08:49:00,
2013-04-20 05:04:00,50.6,48.0,29.76,WSW,253,2.0,3.0,91,0.01,,,0.22,weatherlink.com 1.10,2013-04-20 09:04:00,
2013-04-20 05:19:00,50.8,49.0,29.77,WSW,243,2.0,4.0,92,0.02,,,0.23,weatherlink.com 1.10,2013-04-20 09:19:00,
2013-04-20 05:34:00,50.8,49.0,29.79,WSW,248,4.0,8.0,92,0.04,,,0.25,weatherlink.com 1.10,2013-04-20 09:34:00,
2013-04-20 05:49:00,50.7,49.0,29.80,SE,131,0.0,6.0,92,0.06,,,0.27,weatherlink.com 1.10,2013-04-20 09:49:00,
2013-04-20 06:04:00,50.4,48.0,29.81,WSW,248,2.0,5.0,92,0.06,,,0.28,weatherlink.com 1.10,2013-04-20 10:04:00,
2013-04-20 06:19:00,50.0,47.0,29.82,SW,233,4.0,7.0,88,0.05,,,0.28,weatherlink.com 1.10,2013-04-20 10:19:00,
2013-04-20 06:34:00,49.8,46.0,29.83,SSW,213,2.0,7.0,86,0.03,,,0.28,weatherlink.com 1.10,2013-04-20 10:34:00,
2013-04-20 06:49:00,49.7,44.0,29.83,West,280,0.0,8.0,82,0.01,,,0.28,weatherlink.com 1.10,2013-04-20 10:49:00,
2013-04-20 07:04:00,49.9,44.0,29.85,WSW,249,1.0,5.0,80,0.00,,,0.28,weatherlink.com 1.10,2013-04-20 11:04:00,
2013-04-20 07:19:00,50.1,44.0,29.85,WSW,252,5.0,9.0,79,0.00,,,0.28,weatherlink.com 1.10,2013-04-20 11:19:00,
2013-04-20 07:34:00,50.3,43.0,29.86,West,278,0.0,8.0,77,0.00,,,0.28,weatherlink.com 1.10,2013-04-20 11:34:00,
2013-04-20 07:49:00,50.6,43.0,29.87,West,269,2.0,6.0,75,0.00,,,0.28,weatherlink.com 1.10,2013-04-20 11:49:00,
2013-04-20 08:04:00,50.9,43.0,29.87,NW,312,5.0,5.0,75,0.00,,,0.28,weatherlink.com 1.10,2013-04-20 12:04:00,
2013-04-20 08:19:00,51.2,42.0,29.86,WNW,288,2.0,10.0,72,0.00,,,0.28,weatherlink.com 1.10,2013-04-20 12:19:00,
2013-04-20 08:34:00,51.7,43.0,29.87,SE,145,0.0,8.0,71,0.00,,,0.28,weatherlink.com 1.10,2013-04-20 12:34:00,
2013-04-20 08:49:00,52.8,42.0,29.87,NNW,330,2.0,11.0,66,0.00,,,0.28,weatherlink.com 1.10,2013-04-20 12:49:00,
2013-04-20 09:04:00,53.4,39.0,29.87,SW,231,1.0,11.0,58,0.00,,,0.28,weatherlink.com 1.10,2013-04-20 13:04:00,
2013-04-20 09:19:00,53.6,37.0,29.88,WSW,252,1.0,13.0,54,0.00,,,0.28,weatherlink.com 1.10,2013-04-20 13:19:00,
2013-04-20 09:34:00,53.6,36.0,29.90,WSW,249,7.0,12.0,51,0.00,,,0.28,weatherlink.com 1.10,2013-04-20 13:34:00,
2013-04-20 09:49:00,53.4,35.0,29.91,NW,319,6.0,10.0,51,0.00,,,0.28,weatherlink.com 1.10,2013-04-20 13:49:00,
2013-04-20 10:04:00,53.7,36.0,29.92,SW,236,4.0,8.0,51,0.00,,,0.28,weatherlink.com 1.10,2013-04-20 14:04:00,
2013-04-20 10:19:00,53.7,34.0,29.93,WSW,250,3.0,10.0,48,0.00,,,0.28,weatherlink.com 1.10,2013-04-20 14:19:00,
2013-04-20 10:34:00,53.9,31.0,29.93,WSW,239,3.0,14.0,42,0.00,,,0.28,weatherlink.com 1.10,2013-04-20 14:34:00,
2013-04-20 10:49:00,54.7,32.0,29.95,WNW,294,4.0,11.0,42,0.00,,,0.28,weatherlink.com 1.10,2013-04-20 14:49:00,
2013-04-20 11:04:00,54.5,29.0,29.95,SW,233,5.0,12.0,38,0.00,,,0.28,weatherlink.com 1.10,2013-04-20 15:04:00,
2013-04-20 11:19:00,54.4,30.0,29.96,WNW,285,1.0,10.0,40,0.00,,,0.28,weatherlink.com 1.10,2013-04-20 15:19:00,
2013-04-20 11:34:00,55.1,30.0,29.96,West,279,4.0,12.0,38,0.00,,,0.28,weatherlink.com 1.10,2013-04-20 15:34:00,
2013-04-20 11:49:00,54.5,28.0,29.97,West,259,5.0,13.0,36,0.00,,,0.28,weatherlink.com 1.10,2013-04-20 15:49:00,
2013-04-20 12:04:00,54.6,29.0,29.96,NW,325,5.0,12.0,37,0.00,,,0.00,weatherlink.com 1.10,2013-04-20 16:04:00,
2013-04-20 12:19:00,54.1,29.0,29.96,NE,37,4.0,10.0,39,0.00,,,0.00,weatherlink.com 1.10,2013-04-20 16:19:00,
2013-04-20 12:35:00,54.5,30.0,29.96,NNW,340,2.0,10.0,39,0.00,,,0.00,weatherlink.com 1.10,2013-04-20 16:35:00,
2013-04-20 12:50:00,53.7,30.0,29.95,East,86,4.0,16.0,40,0.00,,,0.00,weatherlink.com 1.10,2013-04-20 16:50:00,
2013-04-20 13:05:00,53.6,30.0,29.95,WNW,293,2.0,12.0,40,0.00,,,0.00,weatherlink.com 1.10,2013-04-20 17:05:00,
2013-04-20 13:20:00,53.8,30.0,29.96,SW,236,5.0,10.0,40,0.00,,,0.00,weatherlink.com 1.10,2013-04-20 17:20:00,
2013-04-20 13:35:00,54.0,31.0,29.96,WNW,283,5.0,9.0,41,0.00,,,0.00,weatherlink.com 1.10,2013-04-20 17:35:00,
2013-04-20 13:50:00,56.2,33.0,29.96,NW,315,3.0,13.0,41,0.00,,,0.00,weatherlink.com 1.10,2013-04-20 17:50:00,
2013-04-20 14:05:00,56.3,32.0,29.96,West,263,5.0,9.0,40,0.00,,,0.00,weatherlink.com 1.10,2013-04-20 18:05:00,
2013-04-20 14:20:00,55.9,32.0,29.96,West,268,3.0,9.0,40,0.00,,,0.00,weatherlink.com 1.10,2013-04-20 18:20:00,
2013-04-20 14:35:00,56.4,32.0,29.96,WSW,238,5.0,11.0,40,0.00,,,0.00,weatherlink.com 1.10,2013-04-20 18:35:00,
2013-04-20 14:50:00,57.4,32.0,29.96,WSW,249,2.0,9.0,38,0.00,,,0.00,weatherlink.com 1.10,2013-04-20 18:50:00,
2013-04-20 15:05:00,57.9,31.0,29.95,East,94,2.0,12.0,36,0.00,,,0.00,weatherlink.com 1.10,2013-04-20 19:05:00,
2013-04-20 15:20:00,58.0,30.0,29.96,SW,236,3.0,13.0,35,0.00,,,0.00,weatherlink.com 1.10,2013-04-20 19:20:00,
2013-04-20 15:35:00,58.2,31.0,29.96,WSW,252,6.0,13.0,35,0.00,,,0.00,weatherlink.com 1.10,2013-04-20 19:35:00,
2013-04-20 15:50:00,59.0,31.0,29.97,SW,220,5.0,11.0,35,0.00,,,0.00,weatherlink.com 1.10,2013-04-20 19:50:00,
2013-04-20 16:05:00,59.8,30.0,29.98,WSW,243,3.0,11.0,33,0.00,,,0.00,weatherlink.com 1.10,2013-04-20 20:05:00,
2013-04-20 16:20:00,60.5,30.0,29.98,NNW,333,2.0,12.0,32,0.00,,,0.00,weatherlink.com 1.10,2013-04-20 20:20:00,
2013-04-20 16:35:00,60.3,30.0,29.98,WSW,245,3.0,9.0,32,0.00,,,0.00,weatherlink.com 1.10,2013-04-20 20:35:00,
2013-04-20 16:50:00,60.4,29.0,29.99,WSW,246,7.0,11.0,31,0.00,,,0.00,weatherlink.com 1.10,2013-04-20 20:50:00,
2013-04-20 17:05:00,60.3,29.0,29.99,West,259,5.0,9.0,31,0.00,,,0.00,weatherlink.com 1.10,2013-04-20 21:05:00,
2013-04-20 17:20:00,59.9,28.0,30.00,WSW,255,3.0,14.0,30,0.00,,,0.00,weatherlink.com 1.10,2013-04-20 21:20:00,
2013-04-20 17:35:00,59.4,28.0,30.01,WSW,244,4.0,10.0,30,0.00,,,0.00,weatherlink.com 1.10,2013-04-20 21:35:00,
2013-04-20 17:50:00,59.3,27.0,30.02,WNW,288,6.0,10.0,29,0.00,,,0.00,weatherlink.com 1.10,2013-04-20 21:50:00,
2013-04-20 18:05:00,59.8,28.0,30.03,WSW,255,4.0,6.0,30,0.00,,,0.00,weatherlink.com 1.10,2013-04-20 22:05:00,
2013-04-20 18:20:00,59.7,28.0,30.04,SW,229,5.0,7.0,30,0.00,,,0.00,weatherlink.com 1.10,2013-04-20 22:20:00,
2013-04-20 18:35:00,58.8,27.0,30.04,WNW,286,1.0,10.0,30,0.00,,,0.00,weatherlink.com 1.10,2013-04-20 22:35:00,
2013-04-20 18:50:00,57.9,26.0,30.05,NNW,346,4.0,10.0,30,0.00,,,0.00,weatherlink.com 1.10,2013-04-20 22:50:00,
2013-04-20 19:05:00,57.1,27.0,30.06,WSW,255,2.0,11.0,31,0.00,,,0.00,weatherlink.com 1.10,2013-04-20 23:05:00,
2013-04-20 19:20:00,56.4,26.0,30.07,SSW,199,3.0,8.0,31,0.00,,,0.00,weatherlink.com 1.10,2013-04-20 23:20:00,
2013-04-20 19:35:00,55.7,27.0,30.08,WSW,243,1.0,9.0,33,0.00,,,0.00,weatherlink.com 1.10,2013-04-20 23:35:00,
2013-04-20 19:50:00,55.1,26.0,30.09,WSW,255,0.0,9.0,33,0.00,,,0.00,weatherlink.com 1.10,2013-04-20 23:50:00,
2013-04-20 20:05:00,54.7,26.0,30.10,SW,221,3.0,8.0,33,0.00,,,0.00,weatherlink.com 1.10,2013-04-21 00:05:00,
2013-04-20 20:21:00,54.3,26.0,30.12,WSW,253,1.0,6.0,34,0.00,,,0.00,weatherlink.com 1.10,2013-04-21 00:21:00,
2013-04-20 20:36:00,53.9,26.0,30.13,WNW,298,3.0,7.0,34,0.00,,,0.00,weatherlink.com 1.10,2013-04-21 00:36:00,
2013-04-20 20:51:00,53.7,26.0,30.14,West,280,3.0,7.0,34,0.00,,,0.00,weatherlink.com 1.10,2013-04-21 00:51:00,
2013-04-20 21:06:00,53.6,26.0,30.15,WSW,243,2.0,7.0,35,0.00,,,0.00,weatherlink.com 1.10,2013-04-21 01:06:00,
2013-04-20 21:21:00,53.2,27.0,30.16,WSW,250,2.0,6.0,36,0.00,,,0.00,weatherlink.com 1.10,2013-04-21 01:21:00,
2013-04-20 21:36:00,53.0,27.0,30.18,NW,315,1.0,7.0,36,0.00,,,0.00,weatherlink.com 1.10,2013-04-21 01:36:00,
2013-04-20 21:51:00,52.9,27.0,30.19,WNW,295,0.0,9.0,37,0.00,,,0.00,weatherlink.com 1.10,2013-04-21 01:51:00,
2013-04-20 22:06:00,52.4,26.0,30.20,SW,218,5.0,9.0,36,0.00,,,0.00,weatherlink.com 1.10,2013-04-21 02:06:00,
2013-04-20 22:21:00,51.9,27.0,30.21,NNE,15,1.0,10.0,38,0.00,,,0.00,weatherlink.com 1.10,2013-04-21 02:21:00,
2013-04-20 22:36:00,51.3,27.0,30.22,East,81,1.0,9.0,39,0.00,,,0.00,weatherlink.com 1.10,2013-04-21 02:36:00,
2013-04-20 22:51:00,50.4,28.0,30.23,SW,236,1.0,10.0,42,0.00,,,0.00,weatherlink.com 1.10,2013-04-21 02:51:00,
2013-04-20 23:06:00,49.5,26.0,30.24,NW,304,2.0,14.0,41,0.00,,,0.00,weatherlink.com 1.10,2013-04-21 03:06:00,
2013-04-20 23:21:00,48.9,27.0,30.24,WSW,256,4.0,8.0,42,0.00,,,0.00,weatherlink.com 1.10,2013-04-21 03:21:00,
2013-04-20 23:36:00,48.5,26.0,30.26,NE,43,1.0,9.0,42,0.00,,,0.00,weatherlink.com 1.10,2013-04-21 03:36:00,
2013-04-20 23:51:00,48.1,27.0,30.26,ENE,71,2.0,8.0,44,0.00,,,0.00,weatherlink.com 1.10,2013-04-21 03:51:00,